TERMINUS DAM (TRM)

Elevation: 752' · KAWEAH R basin · Operator: US Army Corps of Engineers

Provisional data, subject to change.
Query executed Friday at 10:42:24   clock

Select a sensor type for a plot of data.
Note: Reservoir Flows are daily averages.

Earlier

Date RES ELE    STORAGE    RES CHG    TOC STO    ABV TOC    OUTFLOW    INFLOW    FNF    PPT INC    TEMP MN    TEMP MX    WINDLEN    EVP PAN   
 FEET   AF   AF   AF   AF   CFS   CFS   CFS   INCHES   DEG F   DEG F   MILES   INCHES  
08/20/2014 604.27 22785 -194 185300 -162515 98 9 9 0.00 18 35 78 0.28
08/21/2014 603.98 22585 -200 185300 -162715 101 3 3 0.00 19 38 88 0.30
08/22/2014 603.69 22387 -198 185300 -162913 101 8 8 0.00 23 37 95 0.31
08/23/2014 603.40 22190 -197 185300 -163110 101 9 9 0.00 20 35 83 0.28
08/24/2014 603.09 21980 -210 185300 -163320 100 1 1 0.00 20 34 96 0.29
08/25/2014 602.80 21786 -194 185300 -163514 99 9 9 0.00 18 33 79 0.26
08/26/2014 602.45 21552 -234 185300 -163748 109 -12 -12 0.00 17 34 80 0.27
08/27/2014 602.11 21327 -225 185300 -163973 109 1 1 0.00 22 37 93 0.30
08/28/2014 601.77 21104 -- 185300 -- 101 4 4 0.00 22 38 100 0.32
08/29/2014 601.41 20870 -234 185300 -164430 102 -10 -10 0.00 23 38 99 0.30
08/30/2014 601.08 20656 -214 185300 -164644 103 1 1 0.00 21 37 86 0.27
08/31/2014 600.73 20432 -224 185300 -164868 104 -4 -4 0.00 21 37 99 0.30
09/01/2014 600.40 20222 -210 182770 -162548 98 5 -1 0.00 21 37 99 0.30
09/02/2014 600.07 20014 -208 180250 -160236 94 -4 -4 0.00 23 38 105 0.31
09/03/2014 599.74 19807 -207 177720 -157913 99 1 1 0.00 20 36 86 0.28
09/04/2014 599.47 19639 -168 175200 -155561 83 5 5 0.00 20 37 101 0.29
09/05/2014 599.24 19497 -142 172670 -153173 65 0 0 0.00 23 38 103 0.30
09/06/2014 598.99 19343 -154 170150 -150807 66 -5 -5 0.00 21 39 106 0.31
09/07/2014 598.75 19196 -147 167620 -148424 66 -2 -2 0.00 22 40 102 0.29
09/08/2014 598.51 19050 -146 165100 -146050 65 -4 -4 0.00 22 33 102 0.21
09/09/2014 598.29 18917 -133 162570 -143653 58 -4 -4 0.00 18 34 88 0.26
09/10/2014 598.11 18809 -108 160050 -141241 48 0 0 0.00 20 36 97 0.28
09/11/2014 597.90 18683 -126 157520 -138837 54 -3 -3 0.00 21 38 0 0.31
09/12/2014 597.70 18561 -- 155000 -- 50 -4 -4 0.00 23 39 34774 0.34
09/13/2014 597.52 18457 -- 152470 -- 49 3 3 0.00 23 41 100 0.30
09/14/2014 597.37 18368 -- 149950 -131582 50 11 11 0.00 25 40 102 0.28
09/15/2014 597.15 18238 -130 147420 -129182 44 -15 -15 0.00 25 41 97 0.29
09/16/2014 596.99 18145 -93 144900 -126755 44 3 3 0.00 21 37 79 0.25
09/17/2014 596.82 18045 -100 142370 -124325 44 -1 -1 0.00 24 38 98 0.27
09/18/2014 596.64 17941 -104 139850 -121909 -- -- -- -- -- -- -- --
09/19/2014 -- -- -- -- -- -- -- -- -- -- -- -- --

Later | Latest

Warning! This data is preliminary and subject to revision.

Download Data Now Download Data Now | Show TRM Map | Plot TRM Data | 1 Month TRM Data | Real-Time TRM Data | TRM Info